sensor_id;sensor_type;location;lat;lon;timestamp;temperature;humidity
21823;DHT22;11074;48.596;9.238;2023-07-20T00:01:24;22.00;99.90
21823;DHT22;11074;48.596;9.238;2023-07-20T00:03:49;22.00;99.90
21823;DHT22;11074;48.596;9.238;2023-07-20T00:06:23;22.00;99.90
21823;DHT22;11074;48.596;9.238;2023-07-20T00:09:00;21.90;99.90
21823;DHT22;11074;48.596;9.238;2023-07-20T00:11:27;21.90;99.90
21823;DHT22;11074;48.596;9.238;2023-07-20T00:13:53;21.90;99.90
21823;DHT22;11074;48.596;9.238;2023-07-20T00:16:18;21.90;99.90
21823;DHT22;11074;48.596;9.238;2023-07-20T00:18:44;22.00;99.90
21823;DHT22;11074;48.596;9.238;2023-07-20T00:21:10;22.00;99.90
21823;DHT22;11074;48.596;9.238;2023-07-20T00:23:36;22.00;99.90
21823;DHT22;11074;48.596;9.238;2023-07-20T00:26:01;22.10;99.90
21823;DHT22;11074;48.596;9.238;2023-07-20T00:28:27;22.00;99.90
21823;DHT22;11074;48.596;9.238;2023-07-20T00:30:53;22.10;99.90
21823;DHT22;11074;48.596;9.238;2023-07-20T00:33:19;22.00;99.90
21823;DHT22;11074;48.596;9.238;2023-07-20T00:35:45;22.00;99.90
21823;DHT22;11074;48.596;9.238;2023-07-20T00:38:10;22.00;99.90
21823;DHT22;11074;48.596;9.238;2023-07-20T00:40:40;22.00;99.90
21823;DHT22;11074;48.596;9.238;2023-07-20T00:43:07;21.90;99.90
21823;DHT22;11074;48.596;9.238;2023-07-20T00:45:34;21.90;99.90
21823;DHT22;11074;48.596;9.238;2023-07-20T00:48:01;22.00;99.90
21823;DHT22;11074;48.596;9.238;2023-07-20T00:50:29;21.90;99.90
21823;DHT22;11074;48.596;9.238;2023-07-20T00:52:58;21.90;99.90
21823;DHT22;11074;48.596;9.238;2023-07-20T00:55:24;21.90;99.90
21823;DHT22;11074;48.596;9.238;2023-07-20T00:57:51;21.90;99.90
21823;DHT22;11074;48.596;9.238;2023-07-20T01:00:17;21.90;99.90
21823;DHT22;11074;48.596;9.238;2023-07-20T01:02:44;21.80;99.90
21823;DHT22;11074;48.596;9.238;2023-07-20T01:05:11;21.70;99.90
21823;DHT22;11074;48.596;9.238;2023-07-20T01:07:54;21.70;99.90
21823;DHT22;11074;48.596;9.238;2023-07-20T01:10:50;21.70;99.90
21823;DHT22;11074;48.596;9.238;2023-07-20T01:13:20;21.50;99.90
21823;DHT22;11074;48.596;9.238;2023-07-20T01:15:52;21.50;99.90
21823;DHT22;11074;48.596;9.238;2023-07-20T01:18:21;21.60;99.90
21823;DHT22;11074;48.596;9.238;2023-07-20T01:20:47;21.70;99.90
21823;DHT22;11074;48.596;9.238;2023-07-20T01:26:46;21.70;99.90
21823;DHT22;11074;48.596;9.238;2023-07-20T01:29:35;21.70;99.90
21823;DHT22;11074;48.596;9.238;2023-07-20T01:32:17;21.70;99.90
21823;DHT22;11074;48.596;9.238;2023-07-20T01:34:44;21.70;99.90
21823;DHT22;11074;48.596;9.238;2023-07-20T01:37:13;21.60;99.90
21823;DHT22;11074;48.596;9.238;2023-07-20T01:39:42;21.60;99.90
21823;DHT22;11074;48.596;9.238;2023-07-20T01:42:08;21.60;99.90
21823;DHT22;11074;48.596;9.238;2023-07-20T01:44:34;21.60;99.90
21823;DHT22;11074;48.596;9.238;2023-07-20T01:46:59;21.60;99.90
21823;DHT22;11074;48.596;9.238;2023-07-20T01:49:25;21.60;99.90
21823;DHT22;11074;48.596;9.238;2023-07-20T01:51:50;21.50;99.90
21823;DHT22;11074;48.596;9.238;2023-07-20T01:54:16;21.50;99.90
21823;DHT22;11074;48.596;9.238;2023-07-20T01:56:43;21.50;99.90
21823;DHT22;11074;48.596;9.238;2023-07-20T01:59:09;21.40;99.90
21823;DHT22;11074;48.596;9.238;2023-07-20T02:01:35;21.40;99.90
21823;DHT22;11074;48.596;9.238;2023-07-20T02:04:00;21.40;99.90
21823;DHT22;11074;48.596;9.238;2023-07-20T02:06:26;21.30;99.90
21823;DHT22;11074;48.596;9.238;2023-07-20T02:08:51;21.30;99.90
21823;DHT22;11074;48.596;9.238;2023-07-20T02:11:18;21.20;99.90
21823;DHT22;11074;48.596;9.238;2023-07-20T02:13:43;21.10;99.90
21823;DHT22;11074;48.596;9.238;2023-07-20T02:16:09;21.10;99.90
21823;DHT22;11074;48.596;9.238;2023-07-20T02:18:36;21.10;99.90
21823;DHT22;11074;48.596;9.238;2023-07-20T02:21:02;21.10;99.90
21823;DHT22;11074;48.596;9.238;2023-07-20T02:23:28;21.10;99.90
21823;DHT22;11074;48.596;9.238;2023-07-20T02:25:53;21.10;99.90
21823;DHT22;11074;48.596;9.238;2023-07-20T02:28:19;21.00;99.90
21823;DHT22;11074;48.596;9.238;2023-07-20T02:30:45;21.00;99.90
21823;DHT22;11074;48.596;9.238;2023-07-20T02:33:11;21.00;99.90
21823;DHT22;11074;48.596;9.238;2023-07-20T02:35:37;21.00;99.90
21823;DHT22;11074;48.596;9.238;2023-07-20T02:38:02;21.00;99.90
21823;DHT22;11074;48.596;9.238;2023-07-20T02:40:28;21.00;99.90
21823;DHT22;11074;48.596;9.238;2023-07-20T02:42:54;21.00;99.90
21823;DHT22;11074;48.596;9.238;2023-07-20T02:45:20;21.00;99.90
21823;DHT22;11074;48.596;9.238;2023-07-20T02:47:45;21.00;99.90
21823;DHT22;11074;48.596;9.238;2023-07-20T02:50:11;21.00;99.90
21823;DHT22;11074;48.596;9.238;2023-07-20T02:52:39;21.00;99.90
21823;DHT22;11074;48.596;9.238;2023-07-20T02:55:05;21.00;99.90
21823;DHT22;11074;48.596;9.238;2023-07-20T02:57:30;21.10;99.90
21823;DHT22;11074;48.596;9.238;2023-07-20T02:59:56;21.10;99.90
21823;DHT22;11074;48.596;9.238;2023-07-20T03:02:22;21.10;99.90
21823;DHT22;11074;48.596;9.238;2023-07-20T03:04:47;21.10;99.90
21823;DHT22;11074;48.596;9.238;2023-07-20T03:07:13;21.00;99.90
21823;DHT22;11074;48.596;9.238;2023-07-20T03:09:39;20.90;99.90
21823;DHT22;11074;48.596;9.238;2023-07-20T03:12:05;20.80;99.90
21823;DHT22;11074;48.596;9.238;2023-07-20T03:14:31;20.70;99.90
21823;DHT22;11074;48.596;9.238;2023-07-20T03:16:57;20.70;99.90
21823;DHT22;11074;48.596;9.238;2023-07-20T03:19:22;20.70;99.90
21823;DHT22;11074;48.596;9.238;2023-07-20T03:21:48;20.70;99.90
21823;DHT22;11074;48.596;9.238;2023-07-20T03:24:14;20.70;99.90
21823;DHT22;11074;48.596;9.238;2023-07-20T03:26:40;20.70;99.90
21823;DHT22;11074;48.596;9.238;2023-07-20T03:29:05;20.70;99.90
21823;DHT22;11074;48.596;9.238;2023-07-20T03:31:32;20.70;99.90
21823;DHT22;11074;48.596;9.238;2023-07-20T03:33:57;20.70;99.90
21823;DHT22;11074;48.596;9.238;2023-07-20T03:36:23;20.70;99.90
21823;DHT22;11074;48.596;9.238;2023-07-20T03:38:49;20.70;99.90
21823;DHT22;11074;48.596;9.238;2023-07-20T03:41:15;20.60;99.90
21823;DHT22;11074;48.596;9.238;2023-07-20T03:43:41;20.60;99.90
21823;DHT22;11074;48.596;9.238;2023-07-20T03:46:07;20.60;99.90
21823;DHT22;11074;48.596;9.238;2023-07-20T03:48:34;20.50;99.90
21823;DHT22;11074;48.596;9.238;2023-07-20T03:51:00;20.50;99.90
21823;DHT22;11074;48.596;9.238;2023-07-20T03:53:26;20.50;99.90
21823;DHT22;11074;48.596;9.238;2023-07-20T03:55:52;20.50;99.90
21823;DHT22;11074;48.596;9.238;2023-07-20T03:58:19;20.50;99.90
21823;DHT22;11074;48.596;9.238;2023-07-20T04:00:47;20.30;99.90
21823;DHT22;11074;48.596;9.238;2023-07-20T04:03:18;20.30;99.90
21823;DHT22;11074;48.596;9.238;2023-07-20T04:05:48;20.30;99.90
21823;DHT22;11074;48.596;9.238;2023-07-20T04:08:13;20.30;99.90
21823;DHT22;11074;48.596;9.238;2023-07-20T04:10:42;20.20;99.90
21823;DHT22;11074;48.596;9.238;2023-07-20T04:13:09;20.20;99.90
21823;DHT22;11074;48.596;9.238;2023-07-20T04:15:34;20.20;99.90
21823;DHT22;11074;48.596;9.238;2023-07-20T04:18:00;20.20;99.90
21823;DHT22;11074;48.596;9.238;2023-07-20T04:20:26;20.20;99.90
21823;DHT22;11074;48.596;9.238;2023-07-20T04:22:53;20.10;99.90
21823;DHT22;11074;48.596;9.238;2023-07-20T04:25:19;20.10;99.90
21823;DHT22;11074;48.596;9.238;2023-07-20T04:27:45;20.00;99.90
21823;DHT22;11074;48.596;9.238;2023-07-20T04:30:11;20.00;99.90
21823;DHT22;11074;48.596;9.238;2023-07-20T04:32:38;19.80;99.90
21823;DHT22;11074;48.596;9.238;2023-07-20T04:36:02;19.90;99.90
21823;DHT22;11074;48.596;9.238;2023-07-20T04:38:13;19.90;99.90
21823;DHT22;11074;48.596;9.238;2023-07-20T04:40:47;20.00;99.90
21823;DHT22;11074;48.596;9.238;2023-07-20T04:43:16;19.90;99.90
21823;DHT22;11074;48.596;9.238;2023-07-20T04:45:42;20.00;99.90
21823;DHT22;11074;48.596;9.238;2023-07-20T04:48:12;20.00;99.90
21823;DHT22;11074;48.596;9.238;2023-07-20T04:50:44;20.10;99.90
21823;DHT22;11074;48.596;9.238;2023-07-20T04:53:14;20.00;99.90
21823;DHT22;11074;48.596;9.238;2023-07-20T04:55:40;20.00;99.90
21823;DHT22;11074;48.596;9.238;2023-07-20T04:58:06;20.10;99.90
21823;DHT22;11074;48.596;9.238;2023-07-20T05:00:33;20.20;99.90
21823;DHT22;11074;48.596;9.238;2023-07-20T05:02:59;20.20;99.90
21823;DHT22;11074;48.596;9.238;2023-07-20T05:05:25;20.30;99.90
21823;DHT22;11074;48.596;9.238;2023-07-20T05:07:51;20.20;99.90
21823;DHT22;11074;48.596;9.238;2023-07-20T05:10:17;20.20;99.90
21823;DHT22;11074;48.596;9.238;2023-07-20T05:12:43;20.20;99.90
21823;DHT22;11074;48.596;9.238;2023-07-20T05:15:09;20.20;99.90
21823;DHT22;11074;48.596;9.238;2023-07-20T05:17:38;20.30;99.90
21823;DHT22;11074;48.596;9.238;2023-07-20T05:20:08;20.30;99.90
21823;DHT22;11074;48.596;9.238;2023-07-20T05:22:38;20.40;99.90
21823;DHT22;11074;48.596;9.238;2023-07-20T05:25:07;20.40;99.90
21823;DHT22;11074;48.596;9.238;2023-07-20T05:27:37;20.50;99.90
21823;DHT22;11074;48.596;9.238;2023-07-20T05:30:04;20.50;99.90
21823;DHT22;11074;48.596;9.238;2023-07-20T05:32:30;20.50;99.90
21823;DHT22;11074;48.596;9.238;2023-07-20T05:34:56;20.50;99.90
21823;DHT22;11074;48.596;9.238;2023-07-20T05:37:22;20.50;99.90
21823;DHT22;11074;48.596;9.238;2023-07-20T05:39:48;20.60;99.90
21823;DHT22;11074;48.596;9.238;2023-07-20T05:42:13;20.60;99.90
21823;DHT22;11074;48.596;9.238;2023-07-20T05:44:40;20.70;99.90
21823;DHT22;11074;48.596;9.238;2023-07-20T05:47:06;20.70;99.90
21823;DHT22;11074;48.596;9.238;2023-07-20T05:49:32;20.80;99.90
21823;DHT22;11074;48.596;9.238;2023-07-20T05:51:58;20.80;99.90
21823;DHT22;11074;48.596;9.238;2023-07-20T05:54:24;20.80;99.90
21823;DHT22;11074;48.596;9.238;2023-07-20T05:56:51;20.80;99.90
21823;DHT22;11074;48.596;9.238;2023-07-20T05:59:18;20.90;99.90
21823;DHT22;11074;48.596;9.238;2023-07-20T06:01:45;20.90;99.90
21823;DHT22;11074;48.596;9.238;2023-07-20T06:04:14;20.90;99.90
21823;DHT22;11074;48.596;9.238;2023-07-20T06:06:40;21.00;99.90
21823;DHT22;11074;48.596;9.238;2023-07-20T06:09:06;21.00;99.90
21823;DHT22;11074;48.596;9.238;2023-07-20T06:11:35;21.00;99.90
21823;DHT22;11074;48.596;9.238;2023-07-20T06:14:01;21.10;99.90
21823;DHT22;11074;48.596;9.238;2023-07-20T06:16:27;21.10;99.90
21823;DHT22;11074;48.596;9.238;2023-07-20T06:18:52;21.10;99.90
21823;DHT22;11074;48.596;9.238;2023-07-20T06:21:18;21.10;99.90
21823;DHT22;11074;48.596;9.238;2023-07-20T06:23:44;21.20;99.90
21823;DHT22;11074;48.596;9.238;2023-07-20T06:26:09;21.20;99.90
21823;DHT22;11074;48.596;9.238;2023-07-20T06:28:35;21.20;99.90
21823;DHT22;11074;48.596;9.238;2023-07-20T06:31:02;21.20;99.90
21823;DHT22;11074;48.596;9.238;2023-07-20T06:33:29;21.20;99.90
21823;DHT22;11074;48.596;9.238;2023-07-20T06:35:55;21.30;99.90
21823;DHT22;11074;48.596;9.238;2023-07-20T06:38:22;21.30;99.90
21823;DHT22;11074;48.596;9.238;2023-07-20T06:40:49;21.20;99.90
21823;DHT22;11074;48.596;9.238;2023-07-20T06:43:16;21.30;99.90
21823;DHT22;11074;48.596;9.238;2023-07-20T06:45:42;21.20;99.90
21823;DHT22;11074;48.596;9.238;2023-07-20T06:48:08;21.20;99.90
21823;DHT22;11074;48.596;9.238;2023-07-20T06:50:34;21.30;99.90
21823;DHT22;11074;48.596;9.238;2023-07-20T06:53:00;21.30;99.90
21823;DHT22;11074;48.596;9.238;2023-07-20T06:55:28;21.30;99.90
21823;DHT22;11074;48.596;9.238;2023-07-20T06:57:54;21.30;99.90
21823;DHT22;11074;48.596;9.238;2023-07-20T07:00:20;21.30;99.90
21823;DHT22;11074;48.596;9.238;2023-07-20T07:02:45;21.30;99.90
21823;DHT22;11074;48.596;9.238;2023-07-20T07:05:11;21.30;99.90
21823;DHT22;11074;48.596;9.238;2023-07-20T07:07:38;21.40;99.90
21823;DHT22;11074;48.596;9.238;2023-07-20T07:10:05;21.50;99.90
21823;DHT22;11074;48.596;9.238;2023-07-20T07:12:31;21.50;99.90
21823;DHT22;11074;48.596;9.238;2023-07-20T07:14:57;21.60;99.90
21823;DHT22;11074;48.596;9.238;2023-07-20T07:17:23;21.70;99.90
21823;DHT22;11074;48.596;9.238;2023-07-20T07:19:50;21.70;99.90
21823;DHT22;11074;48.596;9.238;2023-07-20T07:22:19;21.70;99.90
21823;DHT22;11074;48.596;9.238;2023-07-20T07:24:44;21.80;99.90
21823;DHT22;11074;48.596;9.238;2023-07-20T07:27:10;21.70;99.90
21823;DHT22;11074;48.596;9.238;2023-07-20T07:29:36;21.80;99.90
21823;DHT22;11074;48.596;9.238;2023-07-20T07:32:02;21.70;99.90
21823;DHT22;11074;48.596;9.238;2023-07-20T07:34:28;21.80;99.90
21823;DHT22;11074;48.596;9.238;2023-07-20T07:36:53;21.80;99.90
21823;DHT22;11074;48.596;9.238;2023-07-20T07:39:19;21.70;99.90
21823;DHT22;11074;48.596;9.238;2023-07-20T07:41:45;21.70;99.90
21823;DHT22;11074;48.596;9.238;2023-07-20T07:44:11;21.70;99.90
21823;DHT22;11074;48.596;9.238;2023-07-20T07:46:37;21.70;99.90
21823;DHT22;11074;48.596;9.238;2023-07-20T07:49:02;21.70;99.90
21823;DHT22;11074;48.596;9.238;2023-07-20T07:51:29;21.70;99.90
21823;DHT22;11074;48.596;9.238;2023-07-20T07:53:54;21.70;99.90
21823;DHT22;11074;48.596;9.238;2023-07-20T07:56:20;21.70;99.90
21823;DHT22;11074;48.596;9.238;2023-07-20T07:58:49;21.60;99.90
21823;DHT22;11074;48.596;9.238;2023-07-20T08:01:16;21.70;99.90
21823;DHT22;11074;48.596;9.238;2023-07-20T08:03:44;21.80;99.90
21823;DHT22;11074;48.596;9.238;2023-07-20T08:06:13;21.90;99.90
21823;DHT22;11074;48.596;9.238;2023-07-20T08:08:39;21.90;99.90
21823;DHT22;11074;48.596;9.238;2023-07-20T08:11:05;21.90;99.90
21823;DHT22;11074;48.596;9.238;2023-07-20T08:13:31;21.90;99.90
21823;DHT22;11074;48.596;9.238;2023-07-20T08:15:57;21.90;99.90
21823;DHT22;11074;48.596;9.238;2023-07-20T08:18:23;21.90;99.90
21823;DHT22;11074;48.596;9.238;2023-07-20T08:20:49;21.90;99.90
21823;DHT22;11074;48.596;9.238;2023-07-20T08:23:15;21.80;99.90
21823;DHT22;11074;48.596;9.238;2023-07-20T08:25:41;21.80;99.90
21823;DHT22;11074;48.596;9.238;2023-07-20T08:28:14;21.80;99.90
21823;DHT22;11074;48.596;9.238;2023-07-20T08:30:45;21.90;99.90
21823;DHT22;11074;48.596;9.238;2023-07-20T08:33:17;21.90;99.90
21823;DHT22;11074;48.596;9.238;2023-07-20T08:35:46;22.00;99.90
21823;DHT22;11074;48.596;9.238;2023-07-20T08:38:13;22.10;99.90
21823;DHT22;11074;48.596;9.238;2023-07-20T08:40:44;22.20;99.90
21823;DHT22;11074;48.596;9.238;2023-07-20T08:43:11;22.30;99.90
21823;DHT22;11074;48.596;9.238;2023-07-20T08:45:41;22.30;99.90
21823;DHT22;11074;48.596;9.238;2023-07-20T08:48:08;22.30;99.90
21823;DHT22;11074;48.596;9.238;2023-07-20T08:50:35;22.30;99.90
21823;DHT22;11074;48.596;9.238;2023-07-20T08:53:01;22.30;99.90
21823;DHT22;11074;48.596;9.238;2023-07-20T08:55:28;22.30;99.90
21823;DHT22;11074;48.596;9.238;2023-07-20T08:57:57;22.40;99.90
21823;DHT22;11074;48.596;9.238;2023-07-20T09:00:25;22.50;99.90
21823;DHT22;11074;48.596;9.238;2023-07-20T09:02:53;22.60;99.90
21823;DHT22;11074;48.596;9.238;2023-07-20T09:05:20;22.60;99.90
21823;DHT22;11074;48.596;9.238;2023-07-20T09:07:48;22.70;99.90
21823;DHT22;11074;48.596;9.238;2023-07-20T09:10:14;22.80;99.90
21823;DHT22;11074;48.596;9.238;2023-07-20T09:12:42;22.70;99.90
21823;DHT22;11074;48.596;9.238;2023-07-20T09:15:10;22.70;99.90
21823;DHT22;11074;48.596;9.238;2023-07-20T09:17:37;22.70;99.90
21823;DHT22;11074;48.596;9.238;2023-07-20T09:20:07;22.70;99.90
21823;DHT22;11074;48.596;9.238;2023-07-20T09:22:37;22.80;99.90
21823;DHT22;11074;48.596;9.238;2023-07-20T09:25:16;22.90;99.90
21823;DHT22;11074;48.596;9.238;2023-07-20T09:27:46;23.00;99.90
21823;DHT22;11074;48.596;9.238;2023-07-20T09:30:15;23.10;99.90
21823;DHT22;11074;48.596;9.238;2023-07-20T09:32:49;23.10;99.90
21823;DHT22;11074;48.596;9.238;2023-07-20T09:35:22;23.20;99.90
21823;DHT22;11074;48.596;9.238;2023-07-20T09:37:55;23.10;99.90
21823;DHT22;11074;48.596;9.238;2023-07-20T09:40:25;23.00;99.90
21823;DHT22;11074;48.596;9.238;2023-07-20T09:42:53;22.90;99.90
21823;DHT22;11074;48.596;9.238;2023-07-20T09:45:43;22.90;99.90
21823;DHT22;11074;48.596;9.238;2023-07-20T09:48:10;23.00;99.90
21823;DHT22;11074;48.596;9.238;2023-07-20T09:50:41;23.00;99.90
21823;DHT22;11074;48.596;9.238;2023-07-20T09:53:11;23.00;99.90
21823;DHT22;11074;48.596;9.238;2023-07-20T09:55:40;23.00;99.90
21823;DHT22;11074;48.596;9.238;2023-07-20T09:58:08;23.10;99.90
21823;DHT22;11074;48.596;9.238;2023-07-20T10:00:37;23.20;99.90
21823;DHT22;11074;48.596;9.238;2023-07-20T10:03:05;23.20;99.90
21823;DHT22;11074;48.596;9.238;2023-07-20T10:05:36;23.20;99.90
21823;DHT22;11074;48.596;9.238;2023-07-20T10:08:05;23.20;99.90
21823;DHT22;11074;48.596;9.238;2023-07-20T10:10:36;23.10;99.90
21823;DHT22;11074;48.596;9.238;2023-07-20T10:13:09;23.10;99.90
21823;DHT22;11074;48.596;9.238;2023-07-20T10:15:52;23.10;99.90
21823;DHT22;11074;48.596;9.238;2023-07-20T10:18:41;23.10;99.90
21823;DHT22;11074;48.596;9.238;2023-07-20T10:21:14;23.30;99.90
21823;DHT22;11074;48.596;9.238;2023-07-20T10:23:43;23.30;99.90
21823;DHT22;11074;48.596;9.238;2023-07-20T10:26:09;23.30;99.90
21823;DHT22;11074;48.596;9.238;2023-07-20T10:28:36;23.40;99.90
21823;DHT22;11074;48.596;9.238;2023-07-20T10:31:03;23.40;99.90
21823;DHT22;11074;48.596;9.238;2023-07-20T10:33:29;23.50;99.90
21823;DHT22;11074;48.596;9.238;2023-07-20T10:35:58;23.70;99.90
21823;DHT22;11074;48.596;9.238;2023-07-20T10:41:20;23.90;99.90
21823;DHT22;11074;48.596;9.238;2023-07-20T10:43:49;23.90;99.90
21823;DHT22;11074;48.596;9.238;2023-07-20T10:46:15;23.90;99.90
21823;DHT22;11074;48.596;9.238;2023-07-20T10:49:06;23.70;99.90
21823;DHT22;11074;48.596;9.238;2023-07-20T10:52:05;23.70;99.90
21823;DHT22;11074;48.596;9.238;2023-07-20T10:57:22;23.70;99.90
21823;DHT22;11074;48.596;9.238;2023-07-20T11:00:28;23.80;99.90
21823;DHT22;11074;48.596;9.238;2023-07-20T11:02:58;24.10;99.90
21823;DHT22;11074;48.596;9.238;2023-07-20T11:05:37;24.10;99.90
21823;DHT22;11074;48.596;9.238;2023-07-20T11:08:09;24.10;99.90
21823;DHT22;11074;48.596;9.238;2023-07-20T11:10:35;24.10;99.90
21823;DHT22;11074;48.596;9.238;2023-07-20T11:13:23;24.20;99.90
21823;DHT22;11074;48.596;9.238;2023-07-20T11:18:25;24.00;99.90
21823;DHT22;11074;48.596;9.238;2023-07-20T11:20:53;24.00;99.90
21823;DHT22;11074;48.596;9.238;2023-07-20T11:23:20;24.20;99.40
21823;DHT22;11074;48.596;9.238;2023-07-20T11:25:46;24.50;99.30
21823;DHT22;11074;48.596;9.238;2023-07-20T11:28:12;24.80;99.00
21823;DHT22;11074;48.596;9.238;2023-07-20T11:30:38;25.00;99.10
21823;DHT22;11074;48.596;9.238;2023-07-20T11:33:10;25.00;99.00
21823;DHT22;11074;48.596;9.238;2023-07-20T11:35:43;25.10;99.50
21823;DHT22;11074;48.596;9.238;2023-07-20T11:38:12;25.10;98.70
21823;DHT22;11074;48.596;9.238;2023-07-20T11:40:46;24.80;98.10
21823;DHT22;11074;48.596;9.238;2023-07-20T11:43:12;24.60;99.00
21823;DHT22;11074;48.596;9.238;2023-07-20T11:45:39;24.80;98.90
21823;DHT22;11074;48.596;9.238;2023-07-20T11:48:05;25.10;98.60
21823;DHT22;11074;48.596;9.238;2023-07-20T11:50:31;25.20;96.30
21823;DHT22;11074;48.596;9.238;2023-07-20T11:52:57;25.10;96.00
21823;DHT22;11074;48.596;9.238;2023-07-20T11:55:23;25.00;96.60
21823;DHT22;11074;48.596;9.238;2023-07-20T11:58:05;24.80;98.10
21823;DHT22;11074;48.596;9.238;2023-07-20T12:00:37;25.00;98.50
21823;DHT22;11074;48.596;9.238;2023-07-20T12:03:06;25.40;98.90
21823;DHT22;11074;48.596;9.238;2023-07-20T12:05:33;25.80;98.40
21823;DHT22;11074;48.596;9.238;2023-07-20T12:07:59;25.60;98.20
21823;DHT22;11074;48.596;9.238;2023-07-20T12:10:26;25.50;98.30
21823;DHT22;11074;48.596;9.238;2023-07-20T12:12:54;25.50;98.80
21823;DHT22;11074;48.596;9.238;2023-07-20T12:15:25;25.70;98.30
21823;DHT22;11074;48.596;9.238;2023-07-20T12:17:53;26.00;97.60
21823;DHT22;11074;48.596;9.238;2023-07-20T12:20:33;26.10;98.10
21823;DHT22;11074;48.596;9.238;2023-07-20T12:23:10;25.70;97.60
21823;DHT22;11074;48.596;9.238;2023-07-20T12:25:45;25.60;97.90
21823;DHT22;11074;48.596;9.238;2023-07-20T12:30:43;25.70;96.60
21823;DHT22;11074;48.596;9.238;2023-07-20T12:33:10;26.10;96.30
21823;DHT22;11074;48.596;9.238;2023-07-20T12:35:37;26.50;96.10
21823;DHT22;11074;48.596;9.238;2023-07-20T12:38:03;26.90;96.00
21823;DHT22;11074;48.596;9.238;2023-07-20T12:40:29;27.10;95.60
21823;DHT22;11074;48.596;9.238;2023-07-20T12:42:55;27.10;95.10
21823;DHT22;11074;48.596;9.238;2023-07-20T12:45:21;27.30;95.10
21823;DHT22;11074;48.596;9.238;2023-07-20T12:47:47;27.30;95.60
21823;DHT22;11074;48.596;9.238;2023-07-20T12:50:13;26.90;94.60
21823;DHT22;11074;48.596;9.238;2023-07-20T12:52:40;27.10;95.20
21823;DHT22;11074;48.596;9.238;2023-07-20T12:55:07;27.10;95.10
21823;DHT22;11074;48.596;9.238;2023-07-20T12:57:35;27.30;95.80
21823;DHT22;11074;48.596;9.238;2023-07-20T13:00:06;27.70;95.60
21823;DHT22;11074;48.596;9.238;2023-07-20T13:02:35;27.50;94.70
21823;DHT22;11074;48.596;9.238;2023-07-20T13:05:01;27.60;95.60
21823;DHT22;11074;48.596;9.238;2023-07-20T13:07:35;27.80;95.30
21823;DHT22;11074;48.596;9.238;2023-07-20T13:10:05;27.90;94.60
21823;DHT22;11074;48.596;9.238;2023-07-20T13:12:32;28.00;93.20
21823;DHT22;11074;48.596;9.238;2023-07-20T13:15:00;27.90;92.90
21823;DHT22;11074;48.596;9.238;2023-07-20T13:17:27;28.00;93.10
21823;DHT22;11074;48.596;9.238;2023-07-20T13:19:54;28.00;93.10
21823;DHT22;11074;48.596;9.238;2023-07-20T13:22:20;28.20;93.40
21823;DHT22;11074;48.596;9.238;2023-07-20T13:24:46;28.20;93.90
21823;DHT22;11074;48.596;9.238;2023-07-20T13:27:16;28.40;93.90
21823;DHT22;11074;48.596;9.238;2023-07-20T13:29:43;28.40;93.40
21823;DHT22;11074;48.596;9.238;2023-07-20T13:32:09;28.50;93.60
21823;DHT22;11074;48.596;9.238;2023-07-20T13:34:35;28.50;93.60
21823;DHT22;11074;48.596;9.238;2023-07-20T13:37:01;28.40;93.00
21823;DHT22;11074;48.596;9.238;2023-07-20T13:39:27;28.50;93.10
21823;DHT22;11074;48.596;9.238;2023-07-20T13:41:54;28.70;92.90
21823;DHT22;11074;48.596;9.238;2023-07-20T13:44:21;28.80;92.10
21823;DHT22;11074;48.596;9.238;2023-07-20T13:46:47;28.60;91.70
21823;DHT22;11074;48.596;9.238;2023-07-20T13:49:14;28.70;93.00
21823;DHT22;11074;48.596;9.238;2023-07-20T13:51:41;28.90;92.50
21823;DHT22;11074;48.596;9.238;2023-07-20T13:54:07;29.10;92.80
21823;DHT22;11074;48.596;9.238;2023-07-20T13:56:33;29.10;92.50
21823;DHT22;11074;48.596;9.238;2023-07-20T13:58:59;29.20;92.90
21823;DHT22;11074;48.596;9.238;2023-07-20T14:01:25;28.80;91.90
21823;DHT22;11074;48.596;9.238;2023-07-20T14:03:51;28.60;91.60
21823;DHT22;11074;48.596;9.238;2023-07-20T14:06:17;28.30;92.60
21823;DHT22;11074;48.596;9.238;2023-07-20T14:08:43;28.10;92.60
21823;DHT22;11074;48.596;9.238;2023-07-20T14:11:12;27.80;92.90
21823;DHT22;11074;48.596;9.238;2023-07-20T14:13:38;27.60;94.90
21823;DHT22;11074;48.596;9.238;2023-07-20T14:16:05;27.80;93.60
21823;DHT22;11074;48.596;9.238;2023-07-20T14:18:31;28.20;92.70
21823;DHT22;11074;48.596;9.238;2023-07-20T14:20:56;28.40;92.90
21823;DHT22;11074;48.596;9.238;2023-07-20T14:23:25;28.60;92.50
21823;DHT22;11074;48.596;9.238;2023-07-20T14:25:51;28.70;92.90
21823;DHT22;11074;48.596;9.238;2023-07-20T14:28:16;28.60;92.70
21823;DHT22;11074;48.596;9.238;2023-07-20T14:30:42;28.60;91.90
21823;DHT22;11074;48.596;9.238;2023-07-20T14:33:08;28.60;92.50
21823;DHT22;11074;48.596;9.238;2023-07-20T14:35:34;28.70;92.60
21823;DHT22;11074;48.596;9.238;2023-07-20T14:38:00;28.70;92.20
21823;DHT22;11074;48.596;9.238;2023-07-20T14:40:26;28.80;92.60
21823;DHT22;11074;48.596;9.238;2023-07-20T14:42:52;28.90;92.00
21823;DHT22;11074;48.596;9.238;2023-07-20T14:45:18;29.00;92.60
21823;DHT22;11074;48.596;9.238;2023-07-20T14:47:44;29.00;91.20
21823;DHT22;11074;48.596;9.238;2023-07-20T14:50:13;28.90;91.30
21823;DHT22;11074;48.596;9.238;2023-07-20T14:52:38;28.70;91.30
21823;DHT22;11074;48.596;9.238;2023-07-20T14:55:04;28.70;91.60
21823;DHT22;11074;48.596;9.238;2023-07-20T14:57:30;28.80;91.00
21823;DHT22;11074;48.596;9.238;2023-07-20T14:59:57;28.80;91.00
21823;DHT22;11074;48.596;9.238;2023-07-20T15:02:23;28.80;90.70
21823;DHT22;11074;48.596;9.238;2023-07-20T15:04:51;28.70;90.60
21823;DHT22;11074;48.596;9.238;2023-07-20T15:07:21;28.70;91.20
21823;DHT22;11074;48.596;9.238;2023-07-20T15:09:47;28.80;91.80
21823;DHT22;11074;48.596;9.238;2023-07-20T15:12:13;28.80;90.90
21823;DHT22;11074;48.596;9.238;2023-07-20T15:14:43;28.90;91.40
21823;DHT22;11074;48.596;9.238;2023-07-20T15:17:12;29.00;91.60
21823;DHT22;11074;48.596;9.238;2023-07-20T15:19:38;29.00;90.90
21823;DHT22;11074;48.596;9.238;2023-07-20T15:22:04;28.90;90.50
21823;DHT22;11074;48.596;9.238;2023-07-20T15:24:31;28.70;90.60
21823;DHT22;11074;48.596;9.238;2023-07-20T15:26:58;28.70;91.20
21823;DHT22;11074;48.596;9.238;2023-07-20T15:29:24;28.50;90.70
21823;DHT22;11074;48.596;9.238;2023-07-20T15:31:50;28.50;91.60
21823;DHT22;11074;48.596;9.238;2023-07-20T15:34:16;28.50;91.10
21823;DHT22;11074;48.596;9.238;2023-07-20T15:36:42;28.50;91.20
21823;DHT22;11074;48.596;9.238;2023-07-20T15:39:08;28.60;91.70
21823;DHT22;11074;48.596;9.238;2023-07-20T15:41:34;28.70;91.70
21823;DHT22;11074;48.596;9.238;2023-07-20T15:44:00;28.50;91.10
21823;DHT22;11074;48.596;9.238;2023-07-20T15:49:07;28.40;91.40
21823;DHT22;11074;48.596;9.238;2023-07-20T15:51:35;28.50;91.50